Time;durP1;ratioP1;P1;durP2;ratioP2;P2;SDS_P1;SDS_P2;PMS_P1;PMS_P2;Temp;Humidity;BMP_temperature;BMP_pressure;BME280_temperature;BME280_humidity;BME280_pressure;Samples;Min_cycle;Max_cycle;Signal;HPM_P1;HPM_P2
2022/06/05 00:01:20;;;;;;;12.18;6.75;;;12.00;99.90;;;;;;4996548;28;20132;-78
2022/06/05 00:03:59;;;;;;;12.23;6.68;;;12.00;99.90;;;;;;4996592;28;20051;-78
2022/06/05 00:06:37;;;;;;;9.80;6.78;;;12.00;99.90;;;;;;4995924;28;20055;-78
2022/06/05 00:09:25;;;;;;;11.18;7.00;;;12.00;99.90;;;;;;4980032;28;20051;-77
2022/06/05 00:12:16;;;;;;;10.43;6.28;;;12.00;99.90;;;;;;4996362;28;20050;-78
2022/06/05 00:14:42;;;;;;;11.23;6.65;;;12.00;99.90;;;;;;4996836;28;20090;-77
2022/06/05 00:17:15;;;;;;;12.95;6.22;;;12.00;99.90;;;;;;4996292;28;20051;-76
2022/06/05 00:19:44;;;;;;;10.77;6.63;;;12.00;99.90;;;;;;4996235;28;20046;-77
2022/06/05 00:22:10;;;;;;;12.38;6.72;;;11.90;99.90;;;;;;4996167;28;20054;-76
2022/06/05 00:24:36;;;;;;;11.32;6.30;;;11.90;99.90;;;;;;4996075;28;20056;-78
2022/06/05 00:27:18;;;;;;;10.55;6.32;;;11.80;99.90;;;;;;4994921;28;20085;-77
2022/06/05 00:29:46;;;;;;;10.43;7.07;;;12.10;99.90;;;;;;4996553;28;20050;-78
2022/06/05 00:32:12;;;;;;;9.70;6.85;;;11.90;99.90;;;;;;4996009;28;20101;-77
2022/06/05 00:34:38;;;;;;;12.55;6.65;;;12.20;99.90;;;;;;4994745;28;20050;-77
2022/06/05 00:37:38;;;;;;;10.70;6.05;;;12.10;99.90;;;;;;4996307;28;20046;-77
2022/06/05 00:40:39;;;;;;;11.88;6.65;;;11.90;99.90;;;;;;4996421;28;20082;-77
2022/06/05 00:43:16;;;;;;;12.40;6.60;;;11.90;99.90;;;;;;4978993;28;20061;-78
2022/06/05 00:45:42;;;;;;;10.80;6.30;;;12.00;99.90;;;;;;4995825;28;20058;-77
2022/06/05 00:48:10;;;;;;;9.35;5.80;;;11.90;99.90;;;;;;4994036;28;20055;-78
2022/06/05 00:50:36;;;;;;;12.75;6.30;;;12.20;99.90;;;;;;4995550;28;20042;-78
2022/06/05 00:53:06;;;;;;;13.00;6.85;;;11.90;99.90;;;;;;4979324;28;20364;-78
2022/06/05 00:55:38;;;;;;;10.95;6.22;;;12.00;99.90;;;;;;4995049;28;20043;-77
2022/06/05 00:58:04;;;;;;;9.93;6.20;;;12.00;99.90;;;;;;4996386;28;20050;-79
2022/06/05 01:00:33;;;;;;;10.73;5.97;;;12.00;99.90;;;;;;4994483;28;20517;-78
2022/06/05 01:03:03;;;;;;;10.00;6.22;;;12.00;99.90;;;;;;4993921;28;20509;-78
2022/06/05 01:05:29;;;;;;;9.43;6.10;;;12.00;99.90;;;;;;4995358;28;20129;-78
2022/06/05 01:07:55;;;;;;;8.05;5.78;;;12.20;99.90;;;;;;4995929;28;20042;-76
2022/06/05 01:10:26;;;;;;;9.27;6.55;;;12.00;99.90;;;;;;4994767;28;20383;-78
2022/06/05 01:12:52;;;;;;;9.80;5.72;;;12.00;99.90;;;;;;4995838;28;20086;-75
2022/06/05 01:15:42;;;;;;;10.60;6.60;;;12.10;99.90;;;;;;4978880;28;20085;-77
2022/06/05 01:18:23;;;;;;;14.45;7.32;;;12.00;99.90;;;;;;4994008;28;20113;-78
2022/06/05 01:21:07;;;;;;;12.23;6.13;;;12.00;99.90;;;;;;4995142;28;20050;-76
2022/06/05 01:23:53;;;;;;;11.75;5.85;;;12.10;99.90;;;;;;4995068;28;20057;-77
2022/06/05 01:26:37;;;;;;;11.60;6.43;;;12.20;99.90;;;;;;4995492;28;20050;-78
2022/06/05 01:29:07;;;;;;;8.30;6.00;;;12.00;99.90;;;;;;4994895;28;20109;-76
2022/06/05 01:31:55;;;;;;;10.55;6.35;;;12.00;99.90;;;;;;4994931;28;20048;-77
2022/06/05 01:34:57;;;;;;;10.00;6.45;;;12.00;99.90;;;;;;4994897;28;20050;-77
2022/06/05 01:37:35;;;;;;;10.63;5.90;;;12.00;99.90;;;;;;4992164;28;20062;-78
2022/06/05 01:40:09;;;;;;;9.48;6.70;;;12.30;99.90;;;;;;4995059;28;20050;-79
2022/06/05 01:42:46;;;;;;;9.77;6.68;;;12.10;99.90;;;;;;4993484;28;20085;-77
2022/06/05 01:45:41;;;;;;;11.60;6.40;;;12.10;99.90;;;;;;4993763;28;20101;-77
2022/06/05 01:48:12;;;;;;;12.30;7.28;;;12.10;99.90;;;;;;4992936;28;20538;-78
2022/06/05 01:51:15;;;;;;;14.25;7.38;;;12.20;99.90;;;;;;4993341;28;20050;-79
2022/06/05 01:53:47;;;;;;;12.40;6.65;;;12.20;99.90;;;;;;4983030;28;20058;-79
2022/06/05 01:56:22;;;;;;;13.45;7.30;;;12.50;99.90;;;;;;4995039;28;20415;-77
2022/06/05 01:58:53;;;;;;;11.82;6.80;;;12.20;99.90;;;;;;4994608;28;20056;-77
2022/06/05 02:01:25;;;;;;;10.40;6.38;;;12.20;99.90;;;;;;4994145;28;20050;-77
2022/06/05 02:04:04;;;;;;;13.85;7.22;;;12.60;99.90;;;;;;4994930;28;20046;-77
2022/06/05 02:06:38;;;;;;;11.73;6.63;;;12.30;99.90;;;;;;4993709;28;20062;-77
2022/06/05 02:09:21;;;;;;;12.85;7.30;;;12.30;99.90;;;;;;4994050;28;20535;-78
2022/06/05 02:11:48;;;;;;;10.80;6.43;;;12.40;99.90;;;;;;4993253;28;20133;-78
2022/06/05 02:14:14;;;;;;;11.43;6.95;;;12.30;99.90;;;;;;4977158;28;20483;-77
2022/06/05 02:16:41;;;;;;;10.77;6.25;;;12.30;99.90;;;;;;4977840;28;20141;-77
2022/06/05 02:19:12;;;;;;;10.38;6.32;;;12.30;99.90;;;;;;4994203;28;20046;-77
2022/06/05 02:21:39;;;;;;;10.80;7.22;;;12.20;99.90;;;;;;4995050;28;20462;-78
2022/06/05 02:24:07;;;;;;;10.02;6.68;;;12.30;99.90;;;;;;4993192;28;20047;-78
2022/06/05 02:26:33;;;;;;;11.60;6.82;;;12.50;99.90;;;;;;4976980;28;20054;-77
2022/06/05 02:29:03;;;;;;;13.20;7.28;;;12.40;99.90;;;;;;4992909;28;20047;-79
2022/06/05 02:32:04;;;;;;;10.98;6.80;;;12.60;99.90;;;;;;4994161;28;20104;-78
2022/06/05 02:34:36;;;;;;;12.25;6.47;;;12.30;99.90;;;;;;4977212;28;20065;-77
2022/06/05 02:37:54;;;;;;;12.43;7.80;;;12.30;99.90;;;;;;4994646;28;20376;-77
2022/06/05 02:40:52;;;;;;;13.38;6.85;;;12.40;99.90;;;;;;4984355;28;20137;-78
2022/06/05 02:43:28;;;;;;;13.88;8.30;;;12.30;99.90;;;;;;4994118;28;20042;-78
2022/06/05 02:46:01;;;;;;;12.88;7.35;;;12.30;99.90;;;;;;4993789;28;20050;-78
2022/06/05 02:48:35;;;;;;;12.75;7.25;;;12.30;99.90;;;;;;4993460;28;20050;-79
2022/06/05 02:51:13;;;;;;;14.40;7.18;;;12.60;99.90;;;;;;4994154;28;20046;-78
2022/06/05 02:53:52;;;;;;;12.85;7.10;;;12.30;99.90;;;;;;4994938;28;20047;-78
2022/06/05 02:56:18;;;;;;;12.30;6.93;;;12.30;99.90;;;;;;4993798;28;20133;-78
2022/06/05 02:58:46;;;;;;;10.70;7.43;;;12.30;99.90;;;;;;4993926;28;20053;-77
2022/06/05 03:03:57;;;;;;;12.50;7.57;;;12.30;99.90;;;;;;4993869;28;20054;-77
2022/06/05 03:06:23;;;;;;;14.55;7.50;;;12.30;99.90;;;;;;4993827;28;20042;-78
2022/06/05 03:08:48;;;;;;;13.23;7.72;;;12.10;99.90;;;;;;4994248;28;20045;-78
2022/06/05 03:11:14;;;;;;;16.80;8.43;;;12.50;99.90;;;;;;4993447;28;20043;-78
2022/06/05 03:13:40;;;;;;;12.00;7.60;;;12.40;99.90;;;;;;4993284;28;20054;-77
2022/06/05 03:16:07;;;;;;;12.85;7.70;;;12.30;99.90;;;;;;4993548;28;20486;-77
2022/06/05 03:18:34;;;;;;;13.00;7.22;;;12.40;99.90;;;;;;4996364;28;20467;-78
2022/06/05 03:20:59;;;;;;;15.30;8.15;;;12.30;99.90;;;;;;4997441;28;20050;-79
2022/06/05 03:23:26;;;;;;;12.95;7.85;;;12.30;99.90;;;;;;4980457;28;20050;-75
2022/06/05 03:25:52;;;;;;;16.83;8.45;;;12.30;99.90;;;;;;4997163;28;20085;-77
2022/06/05 03:28:18;;;;;;;14.52;7.88;;;12.40;99.90;;;;;;4996553;28;20039;-77
2022/06/05 03:30:44;;;;;;;13.55;8.75;;;12.50;99.90;;;;;;4995983;28;20056;-78
2022/06/05 03:33:11;;;;;;;14.25;7.97;;;12.40;99.90;;;;;;4980022;28;20057;-78
2022/06/05 03:35:39;;;;;;;13.80;8.20;;;12.40;99.90;;;;;;4997045;28;20053;-77
2022/06/05 03:38:05;;;;;;;15.30;8.80;;;12.30;99.90;;;;;;4996725;28;20474;-76
2022/06/05 03:40:32;;;;;;;13.82;8.65;;;12.40;99.90;;;;;;4997735;28;20129;-78
2022/06/05 03:42:58;;;;;;;15.00;9.23;;;12.30;99.90;;;;;;4997154;28;20126;-78
2022/06/05 03:45:24;;;;;;;14.32;8.52;;;12.40;99.90;;;;;;4996855;28;20050;-76
2022/06/05 03:47:50;;;;;;;16.17;8.93;;;12.40;99.90;;;;;;4996403;28;20466;-78
2022/06/05 03:50:17;;;;;;;16.05;9.50;;;12.50;99.90;;;;;;4995554;28;20050;-78
2022/06/05 03:52:43;;;;;;;15.45;8.90;;;12.50;99.90;;;;;;4996734;28;20050;-77
2022/06/05 03:55:12;;;;;;;13.73;8.13;;;12.50;99.90;;;;;;4996581;28;20042;-78
2022/06/05 03:57:38;;;;;;;13.73;8.48;;;12.50;99.90;;;;;;4995474;28;20051;-78
2022/06/05 04:00:05;;;;;;;15.60;8.57;;;12.50;99.90;;;;;;4996607;28;20038;-75
2022/06/05 04:02:31;;;;;;;13.15;9.05;;;12.50;99.90;;;;;;4980096;28;20038;-78
2022/06/05 04:04:59;;;;;;;14.30;8.38;;;12.50;99.90;;;;;;4996495;28;20042;-77
2022/06/05 04:07:25;;;;;;;14.02;8.20;;;12.60;99.90;;;;;;4996526;28;20049;-77
2022/06/05 04:09:51;;;;;;;17.80;8.48;;;12.60;99.90;;;;;;4996363;28;20046;-76
2022/06/05 04:12:16;;;;;;;14.43;8.55;;;12.60;99.90;;;;;;4996104;28;20042;-77
2022/06/05 04:14:42;;;;;;;16.30;8.95;;;12.80;99.90;;;;;;4996345;28;20133;-77
2022/06/05 04:17:10;;;;;;;18.25;9.05;;;12.80;99.90;;;;;;4996270;28;20105;-79
2022/06/05 04:19:36;;;;;;;13.02;8.52;;;12.70;99.90;;;;;;4995121;28;20125;-77
2022/06/05 04:22:02;;;;;;;13.77;8.50;;;12.70;99.90;;;;;;4994763;28;20180;-77
2022/06/05 04:24:27;;;;;;;15.43;8.82;;;12.70;99.90;;;;;;4996350;28;20046;-77
2022/06/05 04:26:53;;;;;;;12.57;8.43;;;12.90;99.90;;;;;;4996102;28;20554;-78
2022/06/05 04:29:19;;;;;;;14.13;8.98;;;12.70;99.90;;;;;;4995169;28;20042;-78
2022/06/05 04:31:46;;;;;;;13.48;8.35;;;12.80;99.90;;;;;;4978889;28;20077;-78
2022/06/05 04:34:16;;;;;;;13.38;8.40;;;12.70;99.90;;;;;;4995285;28;20050;-77
2022/06/05 04:36:42;;;;;;;12.85;8.95;;;12.90;99.90;;;;;;4995935;28;20042;-78
2022/06/05 04:39:08;;;;;;;13.00;8.13;;;13.00;99.90;;;;;;4996085;28;20474;-78
2022/06/05 04:41:34;;;;;;;13.82;8.30;;;12.90;99.90;;;;;;4996360;28;20054;-76
2022/06/05 04:44:00;;;;;;;15.07;8.88;;;13.00;99.90;;;;;;4995851;28;20046;-77
2022/06/05 04:46:27;;;;;;;13.18;8.65;;;13.00;99.90;;;;;;4995486;28;20100;-78
2022/06/05 04:48:54;;;;;;;15.50;9.07;;;13.00;99.90;;;;;;4995586;28;20054;-79
2022/06/05 04:51:22;;;;;;;12.32;8.43;;;13.00;99.90;;;;;;4995584;28;20121;-79
2022/06/05 04:53:49;;;;;;;13.77;8.65;;;13.10;99.90;;;;;;4995564;28;20133;-79
2022/06/05 04:56:18;;;;;;;15.93;9.00;;;13.10;99.90;;;;;;4994468;28;20101;-80
2022/06/05 04:58:44;;;;;;;14.43;8.70;;;13.20;99.90;;;;;;4995575;28;20057;-80
2022/06/05 05:01:32;;;;;;;13.70;8.98;;;13.20;99.90;;;;;;4994267;28;20061;-80
2022/06/05 05:04:01;;;;;;;13.23;8.15;;;13.30;99.90;;;;;;4994977;28;20050;-79
2022/06/05 05:06:28;;;;;;;11.93;8.65;;;13.30;99.90;;;;;;4995083;28;20490;-79
2022/06/05 05:08:54;;;;;;;11.52;8.20;;;13.30;99.90;;;;;;4995803;28;20054;-80
2022/06/05 05:11:21;;;;;;;12.82;9.00;;;13.30;99.90;;;;;;4995241;28;20058;-80
2022/06/05 05:13:47;;;;;;;12.57;8.43;;;13.50;99.90;;;;;;4993964;28;20057;-79
2022/06/05 05:16:13;;;;;;;13.68;8.68;;;13.30;99.90;;;;;;4994096;28;20061;-78
2022/06/05 05:18:39;;;;;;;12.98;8.20;;;13.30;99.90;;;;;;4995399;28;20129;-80
2022/06/05 05:21:08;;;;;;;13.20;8.98;;;13.40;99.90;;;;;;4994784;28;20050;-78
2022/06/05 05:23:34;;;;;;;13.77;8.25;;;13.30;99.90;;;;;;4995339;28;20134;-78
2022/06/05 05:26:15;;;;;;;13.80;8.45;;;13.50;99.90;;;;;;4995485;28;20530;-80
2022/06/05 05:28:42;;;;;;;14.77;9.30;;;13.50;99.90;;;;;;4995041;28;20046;-81
2022/06/05 05:31:10;;;;;;;12.32;8.25;;;13.50;99.90;;;;;;4994983;28;20046;-81
2022/06/05 05:33:38;;;;;;;12.07;7.80;;;13.50;99.90;;;;;;4994026;28;20093;-80
2022/06/05 05:36:04;;;;;;;15.02;8.27;;;13.60;99.90;;;;;;4994938;28;20074;-81
2022/06/05 05:38:29;;;;;;;11.43;8.10;;;13.60;99.90;;;;;;4977580;28;20065;-81
2022/06/05 05:43:40;;;;;;;15.45;8.30;;;13.80;99.90;;;;;;4994819;28;20132;-80
2022/06/05 05:46:12;;;;;;;11.30;7.80;;;13.80;99.90;;;;;;4977070;28;20057;-80
2022/06/05 05:48:38;;;;;;;13.40;8.33;;;13.80;99.90;;;;;;4994825;28;20058;-80
2022/06/05 05:51:10;;;;;;;11.85;7.97;;;13.90;99.90;;;;;;4994608;28;20054;-81
2022/06/05 05:53:36;;;;;;;14.00;8.07;;;13.90;99.90;;;;;;4993765;28;20054;-79
2022/06/05 05:56:09;;;;;;;9.82;7.78;;;14.20;99.90;;;;;;4993510;28;20050;-80
2022/06/05 05:58:36;;;;;;;12.68;8.10;;;14.10;99.90;;;;;;4994906;28;20469;-80
2022/06/05 06:01:05;;;;;;;12.60;8.23;;;14.20;99.90;;;;;;4993371;28;20049;-81
2022/06/05 06:03:31;;;;;;;12.73;7.97;;;14.20;99.90;;;;;;4994430;28;20103;-78
2022/06/05 06:05:59;;;;;;;10.15;7.47;;;14.30;99.90;;;;;;4994445;28;20145;-80
2022/06/05 06:08:25;;;;;;;12.32;7.90;;;14.30;99.90;;;;;;4977150;28;20058;-80
2022/06/05 06:10:50;;;;;;;13.13;7.55;;;14.40;99.90;;;;;;4993148;28;20465;-79
2022/06/05 06:13:16;;;;;;;12.95;8.02;;;14.50;99.90;;;;;;4994622;28;20039;-80
2022/06/05 06:15:43;;;;;;;10.40;7.95;;;14.50;99.90;;;;;;4994229;28;20077;-81
2022/06/05 06:18:08;;;;;;;10.77;7.15;;;14.60;99.90;;;;;;4994344;28;20091;-80
2022/06/05 06:20:34;;;;;;;11.75;7.88;;;14.60;99.90;;;;;;4994226;28;20129;-79
2022/06/05 06:23:00;;;;;;;11.23;7.70;;;14.60;99.90;;;;;;4994271;28;20057;-80
2022/06/05 06:25:25;;;;;;;10.55;7.72;;;14.70;99.90;;;;;;4994644;28;20467;-79
2022/06/05 06:27:51;;;;;;;9.13;6.90;;;14.80;99.90;;;;;;4994197;28;20054;-80
2022/06/05 06:30:17;;;;;;;9.48;6.63;;;14.90;99.90;;;;;;4992980;28;20077;-79
2022/06/05 06:32:43;;;;;;;9.95;6.82;;;15.00;99.90;;;;;;4993993;28;20048;-80
2022/06/05 06:35:09;;;;;;;11.57;7.07;;;15.00;99.90;;;;;;4993464;28;20050;-80
2022/06/05 06:37:34;;;;;;;10.45;6.97;;;15.10;99.90;;;;;;4992935;28;20082;-80
2022/06/05 06:40:00;;;;;;;8.88;6.28;;;15.10;99.90;;;;;;4994777;28;20038;-81
2022/06/05 06:42:26;;;;;;;10.27;6.88;;;15.20;99.90;;;;;;4994266;28;20105;-82
2022/06/05 06:44:52;;;;;;;12.48;7.00;;;15.20;99.90;;;;;;4994182;28;20136;-81
2022/06/05 06:47:18;;;;;;;9.45;7.00;;;15.30;99.90;;;;;;4992903;28;20138;-81
2022/06/05 06:49:43;;;;;;;9.23;7.22;;;15.30;99.90;;;;;;4993013;28;20077;-82
2022/06/05 06:52:09;;;;;;;8.45;7.13;;;15.40;99.90;;;;;;4994562;28;20058;-81
2022/06/05 06:54:35;;;;;;;12.80;7.32;;;15.40;99.90;;;;;;4997747;28;20089;-81
2022/06/05 06:57:01;;;;;;;8.60;7.13;;;15.50;99.90;;;;;;4997225;28;20430;-80
2022/06/05 06:59:28;;;;;;;9.85;7.22;;;15.50;99.90;;;;;;4997910;28;20438;-81
2022/06/05 07:01:54;;;;;;;8.32;6.72;;;15.60;99.90;;;;;;4998147;28;20479;-80
2022/06/05 07:04:21;;;;;;;12.02;7.28;;;15.60;99.90;;;;;;4997809;28;20061;-81
2022/06/05 07:06:47;;;;;;;7.78;6.22;;;15.70;99.90;;;;;;4996425;28;20384;-80
2022/06/05 07:09:14;;;;;;;8.57;6.70;;;15.80;99.90;;;;;;4980056;28;20113;-80
2022/06/05 07:11:41;;;;;;;7.38;6.38;;;15.80;99.90;;;;;;4996515;28;20088;-80
2022/06/05 07:14:07;;;;;;;8.88;6.80;;;15.90;99.90;;;;;;4996323;28;20146;-82
2022/06/05 07:16:33;;;;;;;8.48;6.68;;;15.90;99.90;;;;;;4997380;28;20057;-82
2022/06/05 07:18:58;;;;;;;8.18;6.68;;;16.00;99.90;;;;;;4997389;28;20105;-80
2022/06/05 07:21:25;;;;;;;7.88;6.50;;;16.10;99.90;;;;;;4997371;28;20046;-83
2022/06/05 07:23:51;;;;;;;9.85;6.80;;;16.20;99.90;;;;;;4996407;28;20050;-82
2022/06/05 07:26:19;;;;;;;7.78;6.22;;;16.30;99.90;;;;;;4996618;28;20445;-80
2022/06/05 07:28:45;;;;;;;8.02;6.25;;;16.30;99.90;;;;;;4980316;28;20058;-80
2022/06/05 07:31:13;;;;;;;9.95;6.97;;;16.40;99.90;;;;;;4997276;28;20046;-82
2022/06/05 07:33:41;;;;;;;7.22;5.80;;;16.50;99.90;;;;;;4996157;28;20376;-80
2022/06/05 07:36:10;;;;;;;8.15;6.55;;;16.60;99.90;;;;;;4996046;28;20120;-81
2022/06/05 07:38:37;;;;;;;8.38;6.43;;;16.70;99.90;;;;;;4997602;28;20053;-81
2022/06/05 07:41:04;;;;;;;7.93;6.43;;;16.70;99.90;;;;;;4997008;28;20050;-81
2022/06/05 07:43:30;;;;;;;9.25;6.07;;;16.80;99.90;;;;;;4980087;28;20076;-82
2022/06/05 07:45:59;;;;;;;7.88;6.38;;;16.90;99.90;;;;;;4996877;28;20038;-82
2022/06/05 07:48:25;;;;;;;7.40;6.10;;;17.00;99.90;;;;;;4998012;28;20058;-81
2022/06/05 07:56:33;;;;;;;8.57;6.20;;;17.20;99.90;;;;;;4996684;28;20054;-83
2022/06/05 07:58:58;;;;;;;7.22;5.93;;;17.10;99.90;;;;;;4995190;28;20042;-83
2022/06/05 08:01:24;;;;;;;7.07;6.20;;;17.30;99.90;;;;;;4997317;28;20053;-81
2022/06/05 08:03:50;;;;;;;7.85;6.00;;;17.40;99.90;;;;;;4979153;28;20046;-84
2022/06/05 08:06:15;;;;;;;8.73;6.32;;;17.50;99.90;;;;;;4995523;28;20505;-82
2022/06/05 08:08:41;;;;;;;7.55;6.13;;;17.60;99.90;;;;;;4995078;28;20194;-76
2022/06/05 08:11:07;;;;;;;6.28;5.20;;;17.70;99.90;;;;;;4995349;28;20058;-78
2022/06/05 08:13:33;;;;;;;8.10;5.63;;;17.80;99.90;;;;;;4996533;28;20483;-77
2022/06/05 08:15:59;;;;;;;6.65;5.57;;;17.80;99.90;;;;;;4995661;28;20046;-79
2022/06/05 08:18:25;;;;;;;6.75;5.80;;;17.90;99.90;;;;;;4996479;28;20046;-80
2022/06/05 08:20:51;;;;;;;7.97;5.00;;;18.00;99.90;;;;;;4996432;28;20043;-79
2022/06/05 08:23:16;;;;;;;6.82;5.18;;;18.10;99.90;;;;;;4996258;28;20054;-78
2022/06/05 08:25:43;;;;;;;8.02;5.45;;;18.10;99.90;;;;;;4996522;28;20399;-78
2022/06/05 08:28:10;;;;;;;9.73;6.20;;;18.20;99.90;;;;;;4994846;28;20058;-77
2022/06/05 08:30:37;;;;;;;7.28;5.50;;;18.20;99.90;;;;;;4995093;28;20057;-78
2022/06/05 08:33:04;;;;;;;5.93;5.28;;;18.30;99.90;;;;;;4995013;28;20054;-79
2022/06/05 08:35:30;;;;;;;7.07;5.07;;;18.50;99.90;;;;;;4994786;28;20119;-79
2022/06/05 08:44:19;;;;;;;7.60;5.85;;;18.60;99.90;;;;;;4987779;28;20097;-80
2022/06/05 08:46:57;;;;;;;6.13;4.80;;;18.60;99.90;;;;;;4995706;28;20061;-79
2022/06/05 08:49:26;;;;;;;6.28;5.43;;;18.70;99.90;;;;;;4996498;28;20046;-80
2022/06/05 08:52:03;;;;;;;7.00;5.82;;;18.80;99.90;;;;;;4995654;28;20137;-79
2022/06/05 08:54:39;;;;;;;6.03;5.03;;;18.80;99.90;;;;;;4995430;28;20491;-76
2022/06/05 08:57:22;;;;;;;6.85;5.30;;;18.90;99.90;;;;;;4995609;28;20475;-78
2022/06/05 09:00:05;;;;;;;5.38;4.55;;;19.00;99.90;;;;;;4995573;28;20046;-78
2022/06/05 09:02:38;;;;;;;5.97;4.65;;;19.00;99.90;;;;;;4994460;28;20050;-77
2022/06/05 09:05:12;;;;;;;5.03;4.53;;;19.10;99.90;;;;;;4995398;28;20049;-79
2022/06/05 09:07:43;;;;;;;5.22;4.72;;;19.10;99.90;;;;;;4995932;28;20050;-77
2022/06/05 09:10:36;;;;;;;6.22;4.90;;;19.10;99.90;;;;;;4994137;28;20043;-78
2022/06/05 09:13:22;;;;;;;7.47;5.18;;;19.10;99.90;;;;;;4994370;28;20047;-79
2022/06/05 09:15:51;;;;;;;6.45;4.90;;;19.20;99.90;;;;;;4995078;28;20050;-78
2022/06/05 09:18:21;;;;;;;8.85;5.50;;;19.20;99.90;;;;;;4994324;28;20491;-78
2022/06/05 09:20:53;;;;;;;4.80;4.22;;;19.20;99.90;;;;;;4994994;28;20546;-79
2022/06/05 09:23:19;;;;;;;;;;;19.30;99.90;;;;;;4995573;28;20047;-78
2022/06/05 09:26:03;;;;;;;6.55;5.05;;;19.30;99.90;;;;;;5011055;28;20251;-76
2022/06/05 09:28:55;;;;;;;5.22;4.63;;;19.40;99.90;;;;;;4995743;28;20386;-75
2022/06/05 09:31:33;;;;;;;5.53;4.77;;;19.50;99.90;;;;;;4995063;28;20173;-75
2022/06/05 09:34:08;;;;;;;5.32;4.82;;;19.50;99.90;;;;;;4995637;28;20444;-76
2022/06/05 09:36:34;;;;;;;5.93;5.28;;;19.60;99.90;;;;;;4995649;28;20050;-71
2022/06/05 09:39:14;;;;;;;6.55;5.13;;;19.70;99.90;;;;;;4995452;28;20415;-74
2022/06/05 09:42:02;;;;;;;6.50;5.20;;;19.70;99.90;;;;;;4993792;28;20120;-74
2022/06/05 09:45:00;;;;;;;5.60;4.82;;;19.80;99.90;;;;;;4995193;28;20081;-74
2022/06/05 09:47:32;;;;;;;6.30;4.60;;;19.90;99.90;;;;;;4993445;28;20058;-73
2022/06/05 09:50:01;;;;;;;6.50;5.40;;;20.00;99.90;;;;;;4994530;28;20058;-72
2022/06/05 09:52:31;;;;;;;6.47;5.63;;;20.10;99.90;;;;;;4995032;28;20057;-73
2022/06/05 09:55:17;;;;;;;6.10;5.25;;;20.10;99.90;;;;;;4995268;28;20382;-73
2022/06/05 10:00:51;;;;;;;5.68;5.18;;;20.20;99.90;;;;;;4993875;28;20046;-72
2022/06/05 10:03:21;;;;;;;9.93;5.35;;;20.30;99.90;;;;;;4993473;28;20515;-71
2022/06/05 10:06:27;;;;;;;7.07;5.22;;;20.40;99.90;;;;;;4994538;28;20046;-73
2022/06/05 10:09:02;;;;;;;6.05;5.45;;;20.50;99.90;;;;;;4995014;28;20050;-73
2022/06/05 10:11:48;;;;;;;6.72;5.20;;;20.50;99.90;;;;;;4993457;28;20042;-73
2022/06/05 10:14:43;;;;;;;6.93;4.80;;;20.50;99.90;;;;;;4994427;28;20054;-73
2022/06/05 10:17:41;;;;;;;7.18;5.57;;;20.50;99.90;;;;;;4991211;28;20058;-74
2022/06/05 10:20:13;;;;;;;7.28;5.43;;;20.60;99.90;;;;;;4994898;28;20479;-73
2022/06/05 10:23:15;;;;;;;5.30;4.72;;;20.70;99.90;;;;;;4994236;28;20046;-72
2022/06/05 10:25:45;;;;;;;5.60;5.10;;;20.70;99.90;;;;;;4994296;28;20054;-74
2022/06/05 10:28:22;;;;;;;5.10;4.70;;;20.80;99.90;;;;;;4993655;28;20081;-74
2022/06/05 10:30:57;;;;;;;5.55;4.88;;;20.90;99.90;;;;;;4994332;28;20050;-75
2022/06/05 10:34:09;;;;;;;5.40;4.90;;;20.90;99.90;;;;;;4993252;28;20047;-75
2022/06/05 10:36:58;;;;;;;7.32;4.90;;;21.00;99.90;;;;;;4994226;28;20430;-76
2022/06/05 10:39:46;;;;;;;5.30;4.80;;;21.10;99.90;;;;;;4993289;28;20053;-76
2022/06/05 10:42:36;;;;;;;5.50;5.00;;;21.20;99.90;;;;;;4994086;28;20042;-73
2022/06/05 10:45:17;;;;;;;14.73;4.63;;;21.30;99.90;;;;;;4993517;28;20047;-72
2022/06/05 10:48:12;;;;;;;5.97;5.07;;;21.40;99.90;;;;;;4996226;28;20082;-76
2022/06/05 10:50:45;;;;;;;5.03;4.35;;;21.40;99.90;;;;;;4989484;28;20085;-73
2022/06/05 10:53:36;;;;;;;7.60;4.45;;;21.50;99.90;;;;;;4993451;28;20055;-73
2022/06/05 10:56:11;;;;;;;4.95;4.30;;;21.50;99.90;;;;;;4992863;28;20137;-72
2022/06/05 10:58:53;;;;;;;4.70;4.25;;;21.60;99.90;;;;;;4993107;28;20386;-72
2022/06/05 11:02:03;;;;;;;6.17;4.37;;;21.60;99.90;;;;;;4994069;28;20082;-72
2022/06/05 11:04:59;;;;;;;5.07;4.57;;;21.60;99.90;;;;;;4984958;28;20137;-71
2022/06/05 11:07:39;;;;;;;6.15;4.80;;;21.60;99.90;;;;;;4994299;28;20426;-74
2022/06/05 11:10:17;;;;;;;4.82;4.20;;;21.70;99.90;;;;;;4994732;28;20050;-75
2022/06/05 11:15:52;;;;;;;4.57;4.18;;;21.80;99.90;;;;;;4993833;28;20058;-72
2022/06/05 11:18:39;;;;;;;4.65;3.95;;;21.80;99.90;;;;;;4993903;28;20046;-74
2022/06/05 11:21:05;;;;;;;4.55;4.13;;;21.90;99.90;;;;;;4994153;28;20134;-73
2022/06/05 11:23:38;;;;;;;5.03;4.30;;;21.90;99.90;;;;;;4993781;28;20055;-74
2022/06/05 11:26:21;;;;;;;66.30;8.90;;;22.00;99.90;;;;;;4993705;28;20100;-74
2022/06/05 11:28:59;;;;;;;5.50;4.07;;;22.00;99.90;;;;;;4993538;28;20479;-75
2022/06/05 11:31:30;;;;;;;5.72;4.13;;;22.00;99.90;;;;;;4993731;28;20051;-76
2022/06/05 11:34:19;;;;;;;5.93;4.18;;;22.10;99.90;;;;;;4993733;28;20046;-74
2022/06/05 11:36:45;;;;;;;4.18;3.60;;;22.00;99.90;;;;;;4992420;28;20125;-74
2022/06/05 11:39:16;;;;;;;5.03;4.30;;;22.00;99.90;;;;;;4978311;28;20129;-78
2022/06/05 11:41:55;;;;;;;4.40;4.00;;;22.10;99.90;;;;;;4997777;28;20049;-74
2022/06/05 11:44:38;;;;;;;4.43;4.03;;;22.10;99.90;;;;;;4997713;28;20428;-77
2022/06/05 11:47:22;;;;;;;4.50;4.10;;;22.10;99.90;;;;;;4996764;28;20051;-74
2022/06/05 11:49:55;;;;;;;4.55;4.15;;;22.20;99.90;;;;;;4996994;28;20054;-76
2022/06/05 11:52:26;;;;;;;4.10;3.72;;;22.30;99.90;;;;;;4996953;28;20054;-74
2022/06/05 11:55:02;;;;;;;4.50;4.03;;;22.30;99.90;;;;;;4996939;28;20050;-70
2022/06/05 11:57:48;;;;;;;4.10;3.80;;;22.30;99.90;;;;;;4995758;28;20129;-75
2022/06/05 12:00:27;;;;;;;4.25;3.85;;;22.30;99.90;;;;;;4996212;28;20394;-75
2022/06/05 12:03:15;;;;;;;4.90;4.50;;;22.40;99.90;;;;;;4979637;28;20058;-75
2022/06/05 12:05:55;;;;;;;4.57;4.18;;;22.30;99.90;;;;;;4996740;28;20046;-74
2022/06/05 12:08:36;;;;;;;4.20;3.90;;;22.30;99.90;;;;;;4997272;28;20093;-73
2022/06/05 12:11:22;;;;;;;4.47;4.07;;;22.40;99.90;;;;;;4997386;28;20046;-75
2022/06/05 12:14:25;;;;;;;5.18;4.25;;;22.40;99.90;;;;;;4996629;28;20104;-74
2022/06/05 12:17:12;;;;;;;4.35;3.60;;;22.40;99.90;;;;;;4985237;28;20054;-74
2022/06/05 12:20:03;;;;;;;4.47;4.07;;;22.40;99.90;;;;;;4996442;28;20491;-73
2022/06/05 12:22:43;;;;;;;5.00;4.50;;;22.40;99.90;;;;;;4979482;28;20046;-74
2022/06/05 12:25:38;;;;;;;5.03;3.92;;;22.40;99.90;;;;;;4996151;28;20046;-74
2022/06/05 12:28:39;;;;;;;4.40;4.00;;;22.40;99.90;;;;;;4996133;28;20057;-73
2022/06/05 12:31:13;;;;;;;4.68;4.28;;;22.30;99.90;;;;;;4984562;28;20096;-73
2022/06/05 12:33:51;;;;;;;4.40;4.10;;;22.30;99.90;;;;;;4995326;28;20129;-73
2022/06/05 12:36:34;;;;;;;4.63;4.15;;;22.30;99.90;;;;;;4995854;28;20534;-73
2022/06/05 12:39:17;;;;;;;4.70;4.10;;;22.30;99.90;;;;;;4996691;28;20065;-74
2022/06/05 12:42:03;;;;;;;4.60;4.20;;;22.30;99.90;;;;;;4995782;28;20046;-75
2022/06/05 12:44:50;;;;;;;4.47;4.18;;;22.30;99.90;;;;;;4996546;28;20046;-72
2022/06/05 12:47:43;;;;;;;4.57;3.80;;;22.30;99.90;;;;;;4995733;28;20065;-75
2022/06/05 12:50:37;;;;;;;4.63;4.07;;;22.30;99.90;;;;;;4992767;28;20054;-74
2022/06/05 12:53:17;;;;;;;4.65;3.80;;;22.30;99.90;;;;;;4995710;28;20052;-73
2022/06/05 12:56:20;;;;;;;4.00;3.70;;;22.30;99.90;;;;;;4996306;28;20086;-73
2022/06/05 12:59:00;;;;;;;3.70;3.50;;;22.30;99.90;;;;;;4994677;28;20053;-76
2022/06/05 13:01:59;;;;;;;4.72;3.78;;;22.30;99.90;;;;;;4995652;28;20053;-76
2022/06/05 13:04:42;;;;;;;4.20;3.90;;;22.30;99.90;;;;;;4996077;28;20379;-73
2022/06/05 13:07:40;;;;;;;4.93;4.35;;;22.30;99.90;;;;;;4995490;28;20054;-73
2022/06/05 13:10:24;;;;;;;4.30;3.90;;;22.30;99.90;;;;;;4995444;28;20081;-73
2022/06/05 13:13:02;;;;;;;6.38;4.13;;;22.30;99.90;;;;;;4994760;28;20050;-73
2022/06/05 13:15:38;;;;;;;3.63;3.35;;;22.40;99.90;;;;;;4995697;28;20435;-75
2022/06/05 13:18:26;;;;;;;5.00;4.38;;;22.30;99.90;;;;;;4995608;28;20467;-73
2022/06/05 13:21:12;;;;;;;4.60;4.20;;;22.40;99.90;;;;;;4995575;28;20478;-74
2022/06/05 13:24:12;;;;;;;3.88;3.58;;;22.40;99.90;;;;;;4996370;28;20060;-71
2022/06/05 13:26:56;;;;;;;5.22;3.83;;;22.40;99.90;;;;;;4995140;28;20042;-77
2022/06/05 13:29:37;;;;;;;3.72;3.42;;;22.40;99.90;;;;;;4978037;28;20038;-75
2022/06/05 13:32:08;;;;;;;4.97;3.50;;;22.40;99.90;;;;;;4995200;28;20043;-74
2022/06/05 13:34:55;;;;;;;4.18;3.70;;;22.50;99.90;;;;;;4995978;28;20049;-76
2022/06/05 13:37:50;;;;;;;4.45;4.05;;;22.50;99.90;;;;;;4995336;28;20049;-73
2022/06/05 13:40:44;;;;;;;4.60;3.70;;;22.50;99.90;;;;;;4995089;28;20038;-75
2022/06/05 13:43:17;;;;;;;3.63;3.33;;;22.50;99.90;;;;;;4994914;28;20057;-75